Picayune, MS

17:08 CST le 25 novembre 2014 (GMT -0600)
Hide_A_Way Lake ~OWX | Change Station
CLOSE
Current Station
Stations météorologiques personnelles
Location: Carriere, MS
Altitude: 100 ft
Stations météo à proximité

Alt. 100 ft 30.58 °N, 89.65 °W | Updated 3 seconds ago

Couvert
Couvert
51.4 ° F
Paraît 51.4 ° F
N
0.0
Vent Variable Vent de NO
Gusts 1.0 mph

Aujourd'hui
Haut(e) -- | Bas -- ° F
--% Risque de précip.
Hier
Haut(e) -- | Bas -- ° F
Precip. -- pouce
6:33 AM 4:57 PM
Lune montante, 14% visible
Pression 30.13 pouce
Visibilité 10.0 Miles terrestres
Nuages Peu 8000 ft
Nuages épars 10000 ft
Nuageux 12000 ft
Point de rosée 39 ° F
Humidité 62%
Précipitations 0.00 pouce
Profondeur de la couche neigeuse Non disponible.
UV 0.0 sur 12
Pollen 2.80 sur 12
Qualité de l'air Non disponible.
Flu Activity Non disponible.
METAR KASD 252253Z AUTO 03003KT 10SM FEW080 SCT100 BKN120 11/03 A3013 RMK AO2 SLP202 T01060033

More Conditions Fewer Conditions

Pression 30.13 pouce
Visibilité 10.0 Miles terrestres
Nuages Peu 8000 ft
Nuages épars 10000 ft
Nuageux 12000 ft
Point de rosée 39 ° F
Humidité 62%
Précipitations 0.00 pouce
Profondeur de la couche neigeuse Non disponible.
UV 0.0 sur 12
Pollen 2.80 sur 12
Qualité de l'air Non disponible.
Flu Activity Non disponible.
METAR KASD 252253Z AUTO 03003KT 10SM FEW080 SCT100 BKN120 11/03 A3013 RMK AO2 SLP202 T01060033

More Conditions Fewer Conditions

10-Day Weather Forecast

Almanac

Astronomie

Nov. 25, 2014 Lever Coucher
Temps réel
Crépuscule civil
Crépuscule nautique
Crépuscule astronomique
Lune
Durée de lumière visible
Longueur du jour
Tomorrow will be .
, % of the Moon is Illuminated

Extrêmes aujourd'hui

State Highs State Lows

Community

WunderPhotos

Upload Photos

1,773,620 Photos téléchargées !

WunderBlogs® & News

Nearby

Qualité de l'air

  Qualité de l'air Indice de la qualité de l'air Polluant
Not available.

Épaisseur de neige

Station Depth Altitude

Activité sismique

Ville Distance Mag. Time & Date
Minimum magnitude displayed is 2.5.

Températures des eaux côtières

Lieu Température

Stations météo à proximité